Terminal Aerodrome Forecast
Issued by NWS

Home | Current Version | Previous Version | Text Only | Print | Product List | Glossary On
Versions: 1 2 3 4 5 6 7 8 9 10 11 12 13 14 15 16
000
FTUS44 KMAF 041100
TAFINK
TAF
KINK 041125Z 0412/0512 14010KT P6SM BKN120
     FM041600 14018G28KT P6SM BKN040
     FM050000 14020G30KT P6SM -TSRA OVC040CB=

USA.gov is the U.S. government's official web portal to all federal, state and local government web resources and services.